sensor_id;sensor_type;location;lat;lon;timestamp;temperature;humidity
3602;DHT22;1815;50.950;6.920;2023-03-04T00:01:40;6.50;99.90
3602;DHT22;1815;50.950;6.920;2023-03-04T00:04:06;6.50;99.90
3602;DHT22;1815;50.950;6.920;2023-03-04T00:06:32;6.50;99.90
3602;DHT22;1815;50.950;6.920;2023-03-04T00:08:58;6.50;99.90
3602;DHT22;1815;50.950;6.920;2023-03-04T00:11:24;6.50;99.90
3602;DHT22;1815;50.950;6.920;2023-03-04T00:13:50;6.60;99.90
3602;DHT22;1815;50.950;6.920;2023-03-04T00:16:15;6.50;99.90
3602;DHT22;1815;50.950;6.920;2023-03-04T00:18:41;6.50;99.90
3602;DHT22;1815;50.950;6.920;2023-03-04T00:21:07;6.50;99.90
3602;DHT22;1815;50.950;6.920;2023-03-04T00:23:32;6.50;99.90
3602;DHT22;1815;50.950;6.920;2023-03-04T00:25:58;6.50;99.90
3602;DHT22;1815;50.950;6.920;2023-03-04T00:28:27;6.50;99.90
3602;DHT22;1815;50.950;6.920;2023-03-04T00:30:53;6.60;99.90
3602;DHT22;1815;50.950;6.920;2023-03-04T00:33:18;6.60;99.90
3602;DHT22;1815;50.950;6.920;2023-03-04T00:35:44;6.60;99.90
3602;DHT22;1815;50.950;6.920;2023-03-04T00:38:10;6.60;99.90
3602;DHT22;1815;50.950;6.920;2023-03-04T00:40:36;6.60;99.90
3602;DHT22;1815;50.950;6.920;2023-03-04T00:43:03;6.60;99.90
3602;DHT22;1815;50.950;6.920;2023-03-04T00:45:29;6.60;99.90
3602;DHT22;1815;50.950;6.920;2023-03-04T00:47:54;6.60;99.90
3602;DHT22;1815;50.950;6.920;2023-03-04T00:50:20;6.60;99.90
3602;DHT22;1815;50.950;6.920;2023-03-04T00:52:46;6.60;99.90
3602;DHT22;1815;50.950;6.920;2023-03-04T00:55:12;6.60;99.90
3602;DHT22;1815;50.950;6.920;2023-03-04T00:57:37;6.60;99.90
3602;DHT22;1815;50.950;6.920;2023-03-04T01:00:06;6.60;99.90
3602;DHT22;1815;50.950;6.920;2023-03-04T01:02:32;6.60;99.90
3602;DHT22;1815;50.950;6.920;2023-03-04T01:04:57;6.70;99.90
3602;DHT22;1815;50.950;6.920;2023-03-04T01:07:23;6.70;99.90
3602;DHT22;1815;50.950;6.920;2023-03-04T01:09:49;6.70;99.90
3602;DHT22;1815;50.950;6.920;2023-03-04T01:12:14;6.70;99.90
3602;DHT22;1815;50.950;6.920;2023-03-04T01:14:40;6.80;99.90
3602;DHT22;1815;50.950;6.920;2023-03-04T01:17:06;6.80;99.90
3602;DHT22;1815;50.950;6.920;2023-03-04T01:19:31;6.80;99.90
3602;DHT22;1815;50.950;6.920;2023-03-04T01:21:58;6.80;99.90
3602;DHT22;1815;50.950;6.920;2023-03-04T01:24:23;6.80;99.90
3602;DHT22;1815;50.950;6.920;2023-03-04T01:26:49;6.80;99.90
3602;DHT22;1815;50.950;6.920;2023-03-04T01:29:15;6.90;99.90
3602;DHT22;1815;50.950;6.920;2023-03-04T01:31:40;6.90;99.90
3602;DHT22;1815;50.950;6.920;2023-03-04T01:34:06;6.80;99.90
3602;DHT22;1815;50.950;6.920;2023-03-04T01:36:35;6.90;99.90
3602;DHT22;1815;50.950;6.920;2023-03-04T01:39:00;6.90;99.90
3602;DHT22;1815;50.950;6.920;2023-03-04T01:41:26;6.90;99.90
3602;DHT22;1815;50.950;6.920;2023-03-04T01:43:57;6.90;99.90
3602;DHT22;1815;50.950;6.920;2023-03-04T01:46:23;6.90;99.90
3602;DHT22;1815;50.950;6.920;2023-03-04T01:48:50;6.90;99.90
3602;DHT22;1815;50.950;6.920;2023-03-04T01:51:17;6.90;99.90
3602;DHT22;1815;50.950;6.920;2023-03-04T01:53:47;6.90;99.90
3602;DHT22;1815;50.950;6.920;2023-03-04T01:58:42;6.90;99.90
3602;DHT22;1815;50.950;6.920;2023-03-04T02:01:10;6.90;99.90
3602;DHT22;1815;50.950;6.920;2023-03-04T02:03:37;6.90;99.90
3602;DHT22;1815;50.950;6.920;2023-03-04T02:06:04;6.90;99.90
3602;DHT22;1815;50.950;6.920;2023-03-04T02:08:29;6.90;99.90
3602;DHT22;1815;50.950;6.920;2023-03-04T02:10:56;6.90;99.90
3602;DHT22;1815;50.950;6.920;2023-03-04T02:13:22;6.90;99.90
3602;DHT22;1815;50.950;6.920;2023-03-04T02:15:48;6.90;99.90
3602;DHT22;1815;50.950;6.920;2023-03-04T02:18:22;6.90;99.90
3602;DHT22;1815;50.950;6.920;2023-03-04T02:26:33;6.90;99.90
3602;DHT22;1815;50.950;6.920;2023-03-04T02:29:01;6.90;99.90
3602;DHT22;1815;50.950;6.920;2023-03-04T02:31:46;6.90;99.90
3602;DHT22;1815;50.950;6.920;2023-03-04T02:34:20;6.90;99.90
3602;DHT22;1815;50.950;6.920;2023-03-04T02:36:47;6.90;99.90
3602;DHT22;1815;50.950;6.920;2023-03-04T02:39:40;6.90;99.90
3602;DHT22;1815;50.950;6.920;2023-03-04T02:42:06;6.90;99.90
3602;DHT22;1815;50.950;6.920;2023-03-04T02:44:39;6.90;99.90
3602;DHT22;1815;50.950;6.920;2023-03-04T02:47:07;7.00;99.90
3602;DHT22;1815;50.950;6.920;2023-03-04T02:49:35;7.00;99.90
3602;DHT22;1815;50.950;6.920;2023-03-04T02:52:07;7.00;99.90
3602;DHT22;1815;50.950;6.920;2023-03-04T02:54:34;7.00;99.90
3602;DHT22;1815;50.950;6.920;2023-03-04T02:57:04;7.10;99.90
3602;DHT22;1815;50.950;6.920;2023-03-04T02:59:34;7.10;99.90
3602;DHT22;1815;50.950;6.920;2023-03-04T03:02:00;7.10;99.90
3602;DHT22;1815;50.950;6.920;2023-03-04T03:04:26;7.10;99.90
3602;DHT22;1815;50.950;6.920;2023-03-04T03:06:53;7.10;99.90
3602;DHT22;1815;50.950;6.920;2023-03-04T03:09:19;7.10;99.90
3602;DHT22;1815;50.950;6.920;2023-03-04T03:11:45;7.10;99.90
3602;DHT22;1815;50.950;6.920;2023-03-04T03:14:11;7.10;99.90
3602;DHT22;1815;50.950;6.920;2023-03-04T03:16:37;7.10;99.90
3602;DHT22;1815;50.950;6.920;2023-03-04T03:19:03;7.10;99.90
3602;DHT22;1815;50.950;6.920;2023-03-04T03:21:30;7.20;99.90
3602;DHT22;1815;50.950;6.920;2023-03-04T03:23:56;7.20;99.90
3602;DHT22;1815;50.950;6.920;2023-03-04T03:26:24;7.20;99.90
3602;DHT22;1815;50.950;6.920;2023-03-04T03:28:50;7.20;99.90
3602;DHT22;1815;50.950;6.920;2023-03-04T03:31:16;7.20;99.90
3602;DHT22;1815;50.950;6.920;2023-03-04T03:33:45;7.20;99.90
3602;DHT22;1815;50.950;6.920;2023-03-04T03:36:11;7.20;99.90
3602;DHT22;1815;50.950;6.920;2023-03-04T03:38:37;7.20;99.90
3602;DHT22;1815;50.950;6.920;2023-03-04T03:41:03;7.20;99.90
3602;DHT22;1815;50.950;6.920;2023-03-04T03:43:29;7.20;99.90
3602;DHT22;1815;50.950;6.920;2023-03-04T03:45:54;7.20;99.90
3602;DHT22;1815;50.950;6.920;2023-03-04T03:48:20;7.20;99.90
3602;DHT22;1815;50.950;6.920;2023-03-04T03:50:46;7.20;99.90
3602;DHT22;1815;50.950;6.920;2023-03-04T03:53:12;7.20;99.90
3602;DHT22;1815;50.950;6.920;2023-03-04T03:55:37;7.20;99.90
3602;DHT22;1815;50.950;6.920;2023-03-04T03:58:04;7.20;99.90
3602;DHT22;1815;50.950;6.920;2023-03-04T04:00:30;7.20;99.90
3602;DHT22;1815;50.950;6.920;2023-03-04T04:02:57;7.20;99.90
3602;DHT22;1815;50.950;6.920;2023-03-04T04:05:23;7.20;99.90
3602;DHT22;1815;50.950;6.920;2023-03-04T04:07:49;7.30;99.90
3602;DHT22;1815;50.950;6.920;2023-03-04T04:10:15;7.30;99.90
3602;DHT22;1815;50.950;6.920;2023-03-04T04:12:41;7.20;99.90
3602;DHT22;1815;50.950;6.920;2023-03-04T04:15:09;7.30;99.90
3602;DHT22;1815;50.950;6.920;2023-03-04T04:17:35;7.30;99.90
3602;DHT22;1815;50.950;6.920;2023-03-04T04:20:00;7.30;99.90
3602;DHT22;1815;50.950;6.920;2023-03-04T04:22:26;7.30;99.90
3602;DHT22;1815;50.950;6.920;2023-03-04T04:24:52;7.30;99.90
3602;DHT22;1815;50.950;6.920;2023-03-04T04:27:18;7.30;99.90
3602;DHT22;1815;50.950;6.920;2023-03-04T04:29:43;7.30;99.90
3602;DHT22;1815;50.950;6.920;2023-03-04T04:32:09;7.30;99.90
3602;DHT22;1815;50.950;6.920;2023-03-04T04:34:38;7.30;99.90
3602;DHT22;1815;50.950;6.920;2023-03-04T04:37:03;7.30;99.90
3602;DHT22;1815;50.950;6.920;2023-03-04T04:39:29;7.30;99.90
3602;DHT22;1815;50.950;6.920;2023-03-04T04:41:55;7.30;99.90
3602;DHT22;1815;50.950;6.920;2023-03-04T04:44:21;7.30;99.90
3602;DHT22;1815;50.950;6.920;2023-03-04T04:46:46;7.30;99.90
3602;DHT22;1815;50.950;6.920;2023-03-04T04:49:12;7.30;99.90
3602;DHT22;1815;50.950;6.920;2023-03-04T04:51:38;7.40;99.90
3602;DHT22;1815;50.950;6.920;2023-03-04T04:54:04;7.30;99.90
3602;DHT22;1815;50.950;6.920;2023-03-04T04:56:30;7.30;99.90
3602;DHT22;1815;50.950;6.920;2023-03-04T04:58:59;7.30;99.90
3602;DHT22;1815;50.950;6.920;2023-03-04T05:01:25;7.30;99.90
3602;DHT22;1815;50.950;6.920;2023-03-04T05:03:51;7.30;99.90
3602;DHT22;1815;50.950;6.920;2023-03-04T05:06:20;7.30;99.90
3602;DHT22;1815;50.950;6.920;2023-03-04T05:08:46;7.40;99.90
3602;DHT22;1815;50.950;6.920;2023-03-04T05:11:12;7.30;99.90
3602;DHT22;1815;50.950;6.920;2023-03-04T05:13:38;7.30;99.90
3602;DHT22;1815;50.950;6.920;2023-03-04T05:16:04;7.40;99.90
3602;DHT22;1815;50.950;6.920;2023-03-04T05:18:30;7.40;99.90
3602;DHT22;1815;50.950;6.920;2023-03-04T05:20:58;7.40;99.90
3602;DHT22;1815;50.950;6.920;2023-03-04T05:23:25;7.40;99.90
3602;DHT22;1815;50.950;6.920;2023-03-04T05:25:52;7.40;99.90
3602;DHT22;1815;50.950;6.920;2023-03-04T05:28:18;7.40;99.90
3602;DHT22;1815;50.950;6.920;2023-03-04T05:30:45;7.40;99.90
3602;DHT22;1815;50.950;6.920;2023-03-04T05:33:12;7.40;99.90
3602;DHT22;1815;50.950;6.920;2023-03-04T05:35:39;7.40;99.90
3602;DHT22;1815;50.950;6.920;2023-03-04T05:38:07;7.50;99.90
3602;DHT22;1815;50.950;6.920;2023-03-04T05:40:34;7.50;99.90
3602;DHT22;1815;50.950;6.920;2023-03-04T05:42:59;7.50;99.90
3602;DHT22;1815;50.950;6.920;2023-03-04T05:45:26;7.50;99.90
3602;DHT22;1815;50.950;6.920;2023-03-04T05:47:53;7.50;99.90
3602;DHT22;1815;50.950;6.920;2023-03-04T05:50:20;7.50;99.90
3602;DHT22;1815;50.950;6.920;2023-03-04T05:52:46;7.50;99.90
3602;DHT22;1815;50.950;6.920;2023-03-04T05:55:12;7.60;99.90
3602;DHT22;1815;50.950;6.920;2023-03-04T05:57:38;7.60;99.90
3602;DHT22;1815;50.950;6.920;2023-03-04T06:00:05;7.60;99.90
3602;DHT22;1815;50.950;6.920;2023-03-04T06:02:38;7.60;99.90
3602;DHT22;1815;50.950;6.920;2023-03-04T06:05:05;7.60;99.90
3602;DHT22;1815;50.950;6.920;2023-03-04T06:07:31;7.60;99.90
3602;DHT22;1815;50.950;6.920;2023-03-04T06:09:56;7.60;99.90
3602;DHT22;1815;50.950;6.920;2023-03-04T06:12:22;7.60;99.90
3602;DHT22;1815;50.950;6.920;2023-03-04T06:14:48;7.60;99.90
3602;DHT22;1815;50.950;6.920;2023-03-04T06:17:14;7.60;99.90
3602;DHT22;1815;50.950;6.920;2023-03-04T06:19:39;7.60;99.90
3602;DHT22;1815;50.950;6.920;2023-03-04T06:22:09;7.60;99.90
3602;DHT22;1815;50.950;6.920;2023-03-04T06:24:34;7.60;99.90
3602;DHT22;1815;50.950;6.920;2023-03-04T06:27:00;7.60;99.90
3602;DHT22;1815;50.950;6.920;2023-03-04T06:29:26;7.60;99.90
3602;DHT22;1815;50.950;6.920;2023-03-04T06:31:52;7.60;99.90
3602;DHT22;1815;50.950;6.920;2023-03-04T06:34:18;7.60;99.90
3602;DHT22;1815;50.950;6.920;2023-03-04T06:36:46;7.60;99.90
3602;DHT22;1815;50.950;6.920;2023-03-04T06:39:14;7.60;99.90
3602;DHT22;1815;50.950;6.920;2023-03-04T06:41:40;7.60;99.90
3602;DHT22;1815;50.950;6.920;2023-03-04T06:44:06;7.60;99.90
3602;DHT22;1815;50.950;6.920;2023-03-04T06:46:32;7.60;99.90
3602;DHT22;1815;50.950;6.920;2023-03-04T06:48:58;7.60;99.90
3602;DHT22;1815;50.950;6.920;2023-03-04T06:51:24;7.60;99.90
3602;DHT22;1815;50.950;6.920;2023-03-04T06:53:50;7.60;99.90
3602;DHT22;1815;50.950;6.920;2023-03-04T06:56:16;7.60;99.90
3602;DHT22;1815;50.950;6.920;2023-03-04T06:58:42;7.60;99.90
3602;DHT22;1815;50.950;6.920;2023-03-04T07:01:20;7.60;99.90
3602;DHT22;1815;50.950;6.920;2023-03-04T07:03:47;7.60;99.90
3602;DHT22;1815;50.950;6.920;2023-03-04T07:06:16;7.60;99.90
3602;DHT22;1815;50.950;6.920;2023-03-04T07:08:42;7.60;99.90
3602;DHT22;1815;50.950;6.920;2023-03-04T07:11:08;7.60;99.90
3602;DHT22;1815;50.950;6.920;2023-03-04T07:13:35;7.60;99.90
3602;DHT22;1815;50.950;6.920;2023-03-04T07:16:07;7.60;99.90
3602;DHT22;1815;50.950;6.920;2023-03-04T07:18:36;7.60;99.90
3602;DHT22;1815;50.950;6.920;2023-03-04T07:21:04;7.70;99.90
3602;DHT22;1815;50.950;6.920;2023-03-04T07:23:30;7.70;99.90
3602;DHT22;1815;50.950;6.920;2023-03-04T07:25:56;7.70;99.90
3602;DHT22;1815;50.950;6.920;2023-03-04T07:28:22;7.70;99.90
3602;DHT22;1815;50.950;6.920;2023-03-04T07:30:47;7.70;99.90
3602;DHT22;1815;50.950;6.920;2023-03-04T07:33:13;7.70;99.90
3602;DHT22;1815;50.950;6.920;2023-03-04T07:35:39;7.80;99.90
3602;DHT22;1815;50.950;6.920;2023-03-04T07:38:06;7.70;99.90
3602;DHT22;1815;50.950;6.920;2023-03-04T07:40:31;7.70;99.90
3602;DHT22;1815;50.950;6.920;2023-03-04T07:42:57;7.80;99.90
3602;DHT22;1815;50.950;6.920;2023-03-04T07:45:25;7.80;99.90
3602;DHT22;1815;50.950;6.920;2023-03-04T07:47:51;7.80;99.90
3602;DHT22;1815;50.950;6.920;2023-03-04T07:50:17;7.80;99.90
3602;DHT22;1815;50.950;6.920;2023-03-04T07:52:45;7.80;99.90
3602;DHT22;1815;50.950;6.920;2023-03-04T07:55:14;7.80;99.90
3602;DHT22;1815;50.950;6.920;2023-03-04T07:57:45;7.90;99.90
3602;DHT22;1815;50.950;6.920;2023-03-04T08:00:13;7.90;99.90
3602;DHT22;1815;50.950;6.920;2023-03-04T08:02:39;7.90;99.90
3602;DHT22;1815;50.950;6.920;2023-03-04T08:05:05;8.00;99.90
3602;DHT22;1815;50.950;6.920;2023-03-04T08:07:31;8.00;99.90
3602;DHT22;1815;50.950;6.920;2023-03-04T08:09:57;8.00;99.90
3602;DHT22;1815;50.950;6.920;2023-03-04T08:12:23;8.00;99.90
3602;DHT22;1815;50.950;6.920;2023-03-04T08:14:50;8.10;99.90
3602;DHT22;1815;50.950;6.920;2023-03-04T08:17:16;8.10;99.90
3602;DHT22;1815;50.950;6.920;2023-03-04T08:19:41;8.10;99.90
3602;DHT22;1815;50.950;6.920;2023-03-04T08:22:07;8.10;99.90
3602;DHT22;1815;50.950;6.920;2023-03-04T08:24:33;8.10;99.90
3602;DHT22;1815;50.950;6.920;2023-03-04T08:26:59;8.20;99.90
3602;DHT22;1815;50.950;6.920;2023-03-04T08:29:25;8.20;99.90
3602;DHT22;1815;50.950;6.920;2023-03-04T08:31:52;8.20;99.90
3602;DHT22;1815;50.950;6.920;2023-03-04T08:34:24;8.20;99.90
3602;DHT22;1815;50.950;6.920;2023-03-04T08:36:50;8.20;99.90
3602;DHT22;1815;50.950;6.920;2023-03-04T08:39:16;8.30;99.90
3602;DHT22;1815;50.950;6.920;2023-03-04T08:41:43;8.30;99.90
3602;DHT22;1815;50.950;6.920;2023-03-04T08:44:09;8.30;99.90
3602;DHT22;1815;50.950;6.920;2023-03-04T08:46:39;8.30;99.90
3602;DHT22;1815;50.950;6.920;2023-03-04T08:49:05;8.30;99.90
3602;DHT22;1815;50.950;6.920;2023-03-04T08:51:31;8.30;99.90
3602;DHT22;1815;50.950;6.920;2023-03-04T08:53:57;8.40;99.90
3602;DHT22;1815;50.950;6.920;2023-03-04T08:56:23;8.30;99.90
3602;DHT22;1815;50.950;6.920;2023-03-04T08:58:48;8.40;99.90
3602;DHT22;1815;50.950;6.920;2023-03-04T09:01:14;8.40;99.90
3602;DHT22;1815;50.950;6.920;2023-03-04T09:03:41;8.30;99.90
3602;DHT22;1815;50.950;6.920;2023-03-04T09:06:07;8.40;99.90
3602;DHT22;1815;50.950;6.920;2023-03-04T09:08:34;8.50;99.90
3602;DHT22;1815;50.950;6.920;2023-03-04T09:11:00;8.60;99.90
3602;DHT22;1815;50.950;6.920;2023-03-04T09:13:29;8.70;99.90
3602;DHT22;1815;50.950;6.920;2023-03-04T09:15:55;8.70;99.90
3602;DHT22;1815;50.950;6.920;2023-03-04T09:18:22;8.80;99.90
3602;DHT22;1815;50.950;6.920;2023-03-04T09:20:48;8.90;99.90
3602;DHT22;1815;50.950;6.920;2023-03-04T09:23:14;9.00;99.90
3602;DHT22;1815;50.950;6.920;2023-03-04T09:25:41;9.20;99.90
3602;DHT22;1815;50.950;6.920;2023-03-04T09:28:13;9.30;99.90
3602;DHT22;1815;50.950;6.920;2023-03-04T09:30:39;9.30;99.90
3602;DHT22;1815;50.950;6.920;2023-03-04T09:33:05;9.40;99.90
3602;DHT22;1815;50.950;6.920;2023-03-04T09:35:31;9.50;99.90
3602;DHT22;1815;50.950;6.920;2023-03-04T09:37:58;9.60;99.90
3602;DHT22;1815;50.950;6.920;2023-03-04T09:40:38;9.70;99.90
3602;DHT22;1815;50.950;6.920;2023-03-04T09:43:06;9.80;99.90
3602;DHT22;1815;50.950;6.920;2023-03-04T09:45:42;9.80;99.90
3602;DHT22;1815;50.950;6.920;2023-03-04T09:48:13;9.90;99.90
3602;DHT22;1815;50.950;6.920;2023-03-04T09:56:35;10.10;99.90
3602;DHT22;1815;50.950;6.920;2023-03-04T09:59:32;10.10;99.90
3602;DHT22;1815;50.950;6.920;2023-03-04T10:02:06;10.20;99.90
3602;DHT22;1815;50.950;6.920;2023-03-04T10:04:47;10.10;99.90
3602;DHT22;1815;50.950;6.920;2023-03-04T10:07:25;10.10;99.90
3602;DHT22;1815;50.950;6.920;2023-03-04T10:09:56;10.00;99.90
3602;DHT22;1815;50.950;6.920;2023-03-04T10:12:28;10.00;99.90
3602;DHT22;1815;50.950;6.920;2023-03-04T10:15:04;9.90;99.90
3602;DHT22;1815;50.950;6.920;2023-03-04T10:17:34;9.90;99.90
3602;DHT22;1815;50.950;6.920;2023-03-04T10:20:25;9.90;99.90
3602;DHT22;1815;50.950;6.920;2023-03-04T10:22:59;9.90;99.90
3602;DHT22;1815;50.950;6.920;2023-03-04T10:25:32;9.90;99.90
3602;DHT22;1815;50.950;6.920;2023-03-04T10:28:05;9.90;99.90
3602;DHT22;1815;50.950;6.920;2023-03-04T10:33:16;9.90;99.90
3602;DHT22;1815;50.950;6.920;2023-03-04T10:36:05;9.90;99.90
3602;DHT22;1815;50.950;6.920;2023-03-04T10:38:38;9.80;99.90
3602;DHT22;1815;50.950;6.920;2023-03-04T10:41:16;9.90;99.90
3602;DHT22;1815;50.950;6.920;2023-03-04T10:43:42;10.00;99.90
3602;DHT22;1815;50.950;6.920;2023-03-04T10:46:14;10.10;99.90
3602;DHT22;1815;50.950;6.920;2023-03-04T10:48:42;10.20;99.90
3602;DHT22;1815;50.950;6.920;2023-03-04T10:51:22;10.30;99.90
3602;DHT22;1815;50.950;6.920;2023-03-04T10:53:51;10.40;99.90
3602;DHT22;1815;50.950;6.920;2023-03-04T10:56:40;10.50;99.90
3602;DHT22;1815;50.950;6.920;2023-03-04T10:59:32;10.50;99.90
3602;DHT22;1815;50.950;6.920;2023-03-04T11:02:05;10.50;99.90
3602;DHT22;1815;50.950;6.920;2023-03-04T11:04:35;10.50;99.90
3602;DHT22;1815;50.950;6.920;2023-03-04T11:07:01;10.50;99.90
3602;DHT22;1815;50.950;6.920;2023-03-04T11:09:29;10.40;99.90
3602;DHT22;1815;50.950;6.920;2023-03-04T11:11:59;10.40;99.90
3602;DHT22;1815;50.950;6.920;2023-03-04T11:14:39;10.40;99.90
3602;DHT22;1815;50.950;6.920;2023-03-04T11:17:24;10.50;99.90
3602;DHT22;1815;50.950;6.920;2023-03-04T11:22:45;10.80;99.90
3602;DHT22;1815;50.950;6.920;2023-03-04T11:25:25;11.00;99.90
3602;DHT22;1815;50.950;6.920;2023-03-04T11:28:18;11.10;99.90
3602;DHT22;1815;50.950;6.920;2023-03-04T11:33:35;11.20;99.90
3602;DHT22;1815;50.950;6.920;2023-03-04T11:38:49;11.20;99.90
3602;DHT22;1815;50.950;6.920;2023-03-04T11:41:22;11.30;99.90
3602;DHT22;1815;50.950;6.920;2023-03-04T11:43:49;11.20;99.90
3602;DHT22;1815;50.950;6.920;2023-03-04T11:52:21;11.10;99.90
3602;DHT22;1815;50.950;6.920;2023-03-04T11:57:39;11.00;99.90
3602;DHT22;1815;50.950;6.920;2023-03-04T12:06:11;10.90;99.90
3602;DHT22;1815;50.950;6.920;2023-03-04T12:22:50;10.70;99.90
3602;DHT22;1815;50.950;6.920;2023-03-04T12:27:57;10.80;99.90
3602;DHT22;1815;50.950;6.920;2023-03-04T12:33:26;11.10;99.90
3602;DHT22;1815;50.950;6.920;2023-03-04T12:44:53;11.40;99.90
3602;DHT22;1815;50.950;6.920;2023-03-04T12:55:37;11.50;99.90
3602;DHT22;1815;50.950;6.920;2023-03-04T12:58:14;11.50;99.90
3602;DHT22;1815;50.950;6.920;2023-03-04T13:01:08;11.50;99.90
3602;DHT22;1815;50.950;6.920;2023-03-04T13:04:03;11.50;99.90
3602;DHT22;1815;50.950;6.920;2023-03-04T13:06:44;11.50;99.90
3602;DHT22;1815;50.950;6.920;2023-03-04T13:09:31;11.60;99.90
3602;DHT22;1815;50.950;6.920;2023-03-04T13:12:40;11.50;99.90
3602;DHT22;1815;50.950;6.920;2023-03-04T13:20:19;11.40;99.90
3602;DHT22;1815;50.950;6.920;2023-03-04T13:22:54;11.40;99.90
3602;DHT22;1815;50.950;6.920;2023-03-04T13:44:05;11.40;99.90
3602;DHT22;1815;50.950;6.920;2023-03-04T13:46:48;11.40;99.90
3602;DHT22;1815;50.950;6.920;2023-03-04T13:49:22;11.40;99.90
3602;DHT22;1815;50.950;6.920;2023-03-04T13:51:49;11.40;99.90
3602;DHT22;1815;50.950;6.920;2023-03-04T13:56:45;11.30;99.90
3602;DHT22;1815;50.950;6.920;2023-03-04T14:04:32;11.20;99.90
3602;DHT22;1815;50.950;6.920;2023-03-04T14:07:00;11.20;99.90
3602;DHT22;1815;50.950;6.920;2023-03-04T14:09:31;11.20;99.90
3602;DHT22;1815;50.950;6.920;2023-03-04T14:12:00;11.20;99.90
3602;DHT22;1815;50.950;6.920;2023-03-04T14:14:31;11.20;99.90
3602;DHT22;1815;50.950;6.920;2023-03-04T14:17:01;11.10;99.90
3602;DHT22;1815;50.950;6.920;2023-03-04T14:19:32;11.10;99.90
3602;DHT22;1815;50.950;6.920;2023-03-04T14:22:18;11.00;99.90
3602;DHT22;1815;50.950;6.920;2023-03-04T14:27:46;10.90;99.90
3602;DHT22;1815;50.950;6.920;2023-03-04T14:30:32;10.90;99.90
3602;DHT22;1815;50.950;6.920;2023-03-04T14:32:59;10.80;99.90
3602;DHT22;1815;50.950;6.920;2023-03-04T14:35:29;10.70;99.90
3602;DHT22;1815;50.950;6.920;2023-03-04T14:40:30;10.70;99.90
3602;DHT22;1815;50.950;6.920;2023-03-04T14:43:03;10.70;99.90
3602;DHT22;1815;50.950;6.920;2023-03-04T14:45:29;10.80;99.90
3602;DHT22;1815;50.950;6.920;2023-03-04T14:48:00;10.80;99.90
3602;DHT22;1815;50.950;6.920;2023-03-04T14:50:29;10.80;99.90
3602;DHT22;1815;50.950;6.920;2023-03-04T14:53:16;10.90;99.90
3602;DHT22;1815;50.950;6.920;2023-03-04T14:56:04;10.90;99.90
3602;DHT22;1815;50.950;6.920;2023-03-04T14:58:32;10.90;99.90
3602;DHT22;1815;50.950;6.920;2023-03-04T15:01:16;10.90;99.90
3602;DHT22;1815;50.950;6.920;2023-03-04T15:04:01;10.90;99.90
3602;DHT22;1815;50.950;6.920;2023-03-04T15:06:33;10.90;99.90
3602;DHT22;1815;50.950;6.920;2023-03-04T15:09:17;10.80;99.90
3602;DHT22;1815;50.950;6.920;2023-03-04T15:11:51;10.80;99.90
3602;DHT22;1815;50.950;6.920;2023-03-04T15:14:58;10.70;99.90
3602;DHT22;1815;50.950;6.920;2023-03-04T15:17:38;10.60;99.90
3602;DHT22;1815;50.950;6.920;2023-03-04T15:25:16;10.50;99.90
3602;DHT22;1815;50.950;6.920;2023-03-04T15:27:44;10.50;99.90
3602;DHT22;1815;50.950;6.920;2023-03-04T15:30:30;10.50;99.90
3602;DHT22;1815;50.950;6.920;2023-03-04T15:32:58;10.50;99.90
3602;DHT22;1815;50.950;6.920;2023-03-04T15:35:27;10.50;99.90
3602;DHT22;1815;50.950;6.920;2023-03-04T15:37:55;10.50;99.90
3602;DHT22;1815;50.950;6.920;2023-03-04T15:40:36;10.50;99.90
3602;DHT22;1815;50.950;6.920;2023-03-04T15:43:06;10.40;99.90
3602;DHT22;1815;50.950;6.920;2023-03-04T15:45:38;10.40;99.90
3602;DHT22;1815;50.950;6.920;2023-03-04T15:48:10;10.30;99.90
3602;DHT22;1815;50.950;6.920;2023-03-04T15:50:43;10.30;99.90
3602;DHT22;1815;50.950;6.920;2023-03-04T15:53:16;10.30;99.90
3602;DHT22;1815;50.950;6.920;2023-03-04T15:55:44;10.20;99.90
3602;DHT22;1815;50.950;6.920;2023-03-04T15:58:12;10.20;99.90
3602;DHT22;1815;50.950;6.920;2023-03-04T16:00:38;10.20;99.90
3602;DHT22;1815;50.950;6.920;2023-03-04T16:03:04;10.20;99.90
3602;DHT22;1815;50.950;6.920;2023-03-04T16:05:32;10.20;99.90
3602;DHT22;1815;50.950;6.920;2023-03-04T16:08:00;10.20;99.90
3602;DHT22;1815;50.950;6.920;2023-03-04T16:10:28;10.10;99.90
3602;DHT22;1815;50.950;6.920;2023-03-04T16:12:58;10.20;99.90
3602;DHT22;1815;50.950;6.920;2023-03-04T16:15:27;10.10;99.90
3602;DHT22;1815;50.950;6.920;2023-03-04T16:17:54;10.10;99.90
3602;DHT22;1815;50.950;6.920;2023-03-04T16:20:28;10.10;99.90
3602;DHT22;1815;50.950;6.920;2023-03-04T16:22:57;10.00;99.90
3602;DHT22;1815;50.950;6.920;2023-03-04T16:25:24;10.00;99.90
3602;DHT22;1815;50.950;6.920;2023-03-04T16:27:53;10.00;99.90
3602;DHT22;1815;50.950;6.920;2023-03-04T16:30:23;9.90;99.90
3602;DHT22;1815;50.950;6.920;2023-03-04T16:32:49;9.90;99.90
3602;DHT22;1815;50.950;6.920;2023-03-04T16:35:16;9.90;99.90
3602;DHT22;1815;50.950;6.920;2023-03-04T16:37:43;9.90;99.90
3602;DHT22;1815;50.950;6.920;2023-03-04T16:40:18;9.80;99.90
3602;DHT22;1815;50.950;6.920;2023-03-04T16:42:44;9.80;99.90
3602;DHT22;1815;50.950;6.920;2023-03-04T16:45:15;9.80;99.90
3602;DHT22;1815;50.950;6.920;2023-03-04T16:47:42;9.80;99.90
3602;DHT22;1815;50.950;6.920;2023-03-04T16:50:20;9.70;99.90
3602;DHT22;1815;50.950;6.920;2023-03-04T16:52:49;9.70;99.90
3602;DHT22;1815;50.950;6.920;2023-03-04T16:55:35;9.60;99.90
3602;DHT22;1815;50.950;6.920;2023-03-04T16:58:01;9.60;99.90
3602;DHT22;1815;50.950;6.920;2023-03-04T17:00:28;9.60;99.90
3602;DHT22;1815;50.950;6.920;2023-03-04T17:02:59;9.60;99.90
3602;DHT22;1815;50.950;6.920;2023-03-04T17:05:28;9.60;99.90
3602;DHT22;1815;50.950;6.920;2023-03-04T17:07:54;9.50;99.90
3602;DHT22;1815;50.950;6.920;2023-03-04T17:10:19;9.50;99.90
3602;DHT22;1815;50.950;6.920;2023-03-04T17:12:45;9.40;99.90
3602;DHT22;1815;50.950;6.920;2023-03-04T17:15:12;9.40;99.90
3602;DHT22;1815;50.950;6.920;2023-03-04T17:17:40;9.40;99.90
3602;DHT22;1815;50.950;6.920;2023-03-04T17:20:06;9.40;99.90
3602;DHT22;1815;50.950;6.920;2023-03-04T17:22:33;9.40;99.90
3602;DHT22;1815;50.950;6.920;2023-03-04T17:25:00;9.50;99.90
3602;DHT22;1815;50.950;6.920;2023-03-04T17:27:28;9.50;99.90
3602;DHT22;1815;50.950;6.920;2023-03-04T17:29:54;9.50;99.90
3602;DHT22;1815;50.950;6.920;2023-03-04T17:32:19;9.40;99.90
3602;DHT22;1815;50.950;6.920;2023-03-04T17:34:45;9.50;99.90
3602;DHT22;1815;50.950;6.920;2023-03-04T17:37:12;9.40;99.90
3602;DHT22;1815;50.950;6.920;2023-03-04T17:39:38;9.40;99.90
3602;DHT22;1815;50.950;6.920;2023-03-04T17:42:04;9.40;99.90
3602;DHT22;1815;50.950;6.920;2023-03-04T17:44:30;9.30;99.90
3602;DHT22;1815;50.950;6.920;2023-03-04T17:46:56;9.30;99.90
3602;DHT22;1815;50.950;6.920;2023-03-04T17:49:23;9.30;99.90
3602;DHT22;1815;50.950;6.920;2023-03-04T17:51:49;9.30;99.90
3602;DHT22;1815;50.950;6.920;2023-03-04T17:54:15;9.30;99.90
3602;DHT22;1815;50.950;6.920;2023-03-04T17:56:41;9.30;99.90
3602;DHT22;1815;50.950;6.920;2023-03-04T17:59:14;9.30;99.90
3602;DHT22;1815;50.950;6.920;2023-03-04T18:01:41;9.30;99.90
3602;DHT22;1815;50.950;6.920;2023-03-04T18:04:09;9.30;99.90
3602;DHT22;1815;50.950;6.920;2023-03-04T18:06:36;9.30;99.90
3602;DHT22;1815;50.950;6.920;2023-03-04T18:09:02;9.30;99.90
3602;DHT22;1815;50.950;6.920;2023-03-04T18:11:29;9.30;99.90
3602;DHT22;1815;50.950;6.920;2023-03-04T18:13:54;9.30;99.90
3602;DHT22;1815;50.950;6.920;2023-03-04T18:16:20;9.30;99.90
3602;DHT22;1815;50.950;6.920;2023-03-04T18:18:52;9.30;99.90
3602;DHT22;1815;50.950;6.920;2023-03-04T18:21:19;9.30;99.90
3602;DHT22;1815;50.950;6.920;2023-03-04T18:23:45;9.30;99.90
3602;DHT22;1815;50.950;6.920;2023-03-04T18:26:12;9.30;99.90